createdAt,value
2023-03-22T00:01:38.233Z,6.53
2023-03-22T00:04:06.770Z,6.57
2023-03-22T00:06:35.218Z,6.47
2023-03-22T00:09:03.365Z,6.43
2023-03-22T00:11:31.806Z,5.27
2023-03-22T00:14:00.163Z,5.63
2023-03-22T00:16:29.807Z,4.97
2023-03-22T00:19:02.441Z,5.40
2023-03-22T00:21:31.452Z,5.60
2023-03-22T00:23:59.918Z,4.97
2023-03-22T00:26:28.420Z,5.07
2023-03-22T00:28:56.606Z,4.90
2023-03-22T00:31:25.190Z,4.80
2023-03-22T00:33:53.593Z,4.73
2023-03-22T00:36:23.618Z,5.63
2023-03-22T00:38:51.948Z,6.13
2023-03-22T00:41:21.741Z,5.87
2023-03-22T00:43:51.296Z,5.17
2023-03-22T00:46:22.136Z,5.77
2023-03-22T00:48:50.521Z,5.53
2023-03-22T00:51:19.192Z,6.60
2023-03-22T00:53:51.077Z,5.87
2023-03-22T00:56:19.725Z,5.90
2023-03-22T00:58:48.167Z,5.67
2023-03-22T01:01:16.691Z,5.73
2023-03-22T01:03:45.497Z,5.73
2023-03-22T01:06:13.957Z,6.13
2023-03-22T01:08:45.310Z,5.77
2023-03-22T01:11:15.123Z,6.43
2023-03-22T01:13:43.578Z,6.27
2023-03-22T01:16:13.450Z,6.77
2023-03-22T01:18:41.887Z,6.83
2023-03-22T01:21:10.632Z,6.57
2023-03-22T01:23:39.093Z,6.57
2023-03-22T01:26:08.116Z,6.37
2023-03-22T01:28:40.543Z,6.87
2023-03-22T01:31:09.454Z,6.77
2023-03-22T01:33:37.814Z,6.30
2023-03-22T01:36:07.123Z,5.87
2023-03-22T01:38:35.400Z,6.13
2023-03-22T01:41:04.023Z,5.47
2023-03-22T01:43:32.469Z,5.40
2023-03-22T01:46:02.443Z,5.20
2023-03-22T01:48:34.471Z,5.80
2023-03-22T01:51:09.076Z,5.60
2023-03-22T01:53:42.556Z,7.43
2023-03-22T01:56:11.992Z,7.03
2023-03-22T01:58:41.703Z,7.40
2023-03-22T02:01:12.704Z,6.43
2023-03-22T02:03:48.050Z,6.73
2023-03-22T02:06:16.541Z,6.77
2023-03-22T02:08:45.228Z,6.10
2023-03-22T02:11:17.994Z,5.77
2023-03-22T02:14:09.087Z,5.33
2023-03-22T02:16:49.693Z,5.87
2023-03-22T02:19:42.548Z,5.27
2023-03-22T02:22:38.925Z,5.10
2023-03-22T02:25:32.084Z,5.27
2023-03-22T02:28:14.690Z,5.60
2023-03-22T02:31:15.591Z,6.07
2023-03-22T02:34:00.609Z,6.10
2023-03-22T02:36:54.979Z,5.87
2023-03-22T02:39:41.259Z,5.97
2023-03-22T02:42:24.526Z,6.80
2023-03-22T02:45:01.031Z,5.63
2023-03-22T02:47:38.656Z,6.17
2023-03-22T02:50:15.770Z,6.27
2023-03-22T02:52:50.235Z,6.27
2023-03-22T02:55:25.033Z,6.10
2023-03-22T02:57:57.726Z,6.60
2023-03-22T03:00:27.956Z,6.47
2023-03-22T03:03:00.351Z,6.77
2023-03-22T03:05:32.731Z,6.97
2023-03-22T03:08:03.151Z,7.47
2023-03-22T03:10:33.304Z,7.47
2023-03-22T03:13:02.346Z,7.77
2023-03-22T03:15:31.330Z,7.87
2023-03-22T03:18:13.740Z,7.53
2023-03-22T03:20:54.420Z,7.77
2023-03-22T03:23:31.396Z,7.37
2023-03-22T03:26:09.181Z,7.93
2023-03-22T03:28:43.328Z,7.43
2023-03-22T03:31:21.670Z,7.73
2023-03-22T03:33:55.639Z,7.77
2023-03-22T03:36:26.230Z,6.83
2023-03-22T03:38:57.747Z,7.83
2023-03-22T03:41:30.053Z,7.90
2023-03-22T03:43:59.833Z,8.07
2023-03-22T03:46:29.239Z,7.37
2023-03-22T03:48:59.031Z,7.93
2023-03-22T03:51:28.541Z,8.27
2023-03-22T03:53:56.721Z,7.87
2023-03-22T03:56:25.271Z,7.63
2023-03-22T03:58:54.780Z,8.37
2023-03-22T04:01:24.338Z,8.47
2023-03-22T04:03:55.462Z,8.10
2023-03-22T04:06:23.939Z,7.50
2023-03-22T04:08:53.634Z,8.17
2023-03-22T04:11:22.208Z,8.80
2023-03-22T04:13:50.558Z,8.90
2023-03-22T04:16:20.470Z,9.47
2023-03-22T04:18:48.618Z,9.03
2023-03-22T04:21:16.960Z,8.60
2023-03-22T04:23:46.715Z,8.87
2023-03-22T04:26:15.477Z,8.37
2023-03-22T04:28:43.842Z,8.80
2023-03-22T04:31:12.477Z,9.47
2023-03-22T04:33:46.772Z,8.90
2023-03-22T04:36:17.555Z,9.20
2023-03-22T04:38:46.021Z,9.13
2023-03-22T04:41:14.198Z,9.20
2023-03-22T04:43:42.650Z,8.97
2023-03-22T04:46:12.967Z,8.57
2023-03-22T04:48:43.719Z,9.80
2023-03-22T04:51:12.908Z,8.77
2023-03-22T04:53:41.178Z,10.93
2023-03-22T04:56:12.821Z,9.00
2023-03-22T04:58:42.487Z,9.23
2023-03-22T05:01:12.594Z,10.23
2023-03-22T05:03:43.231Z,9.80
2023-03-22T05:06:11.618Z,10.17
2023-03-22T05:08:40.080Z,10.13
2023-03-22T05:11:10.817Z,10.13
2023-03-22T05:13:39.143Z,10.33
2023-03-22T05:16:10.422Z,9.50
2023-03-22T05:18:42.429Z,9.77
2023-03-22T05:21:16.087Z,10.60
2023-03-22T05:23:45.684Z,9.53
2023-03-22T05:26:15.667Z,9.03
2023-03-22T05:28:44.709Z,9.87
2023-03-22T05:31:15.144Z,10.03
2023-03-22T05:33:44.036Z,10.13
2023-03-22T05:36:13.983Z,9.37
2023-03-22T05:38:42.287Z,9.57
2023-03-22T05:41:10.700Z,9.27
2023-03-22T05:43:39.649Z,9.13
2023-03-22T05:46:08.656Z,10.80
2023-03-22T05:48:37.534Z,9.33
2023-03-22T05:51:07.408Z,9.30
2023-03-22T05:53:37.912Z,8.80
2023-03-22T05:56:10.109Z,8.93
2023-03-22T05:58:38.325Z,9.00
2023-03-22T06:01:08.045Z,9.07
2023-03-22T06:03:36.327Z,9.27
2023-03-22T06:06:06.890Z,9.40
2023-03-22T06:08:36.870Z,9.37
2023-03-22T06:11:06.976Z,8.50
2023-03-22T06:13:35.462Z,10.20
2023-03-22T06:16:05.546Z,10.40
2023-03-22T06:18:34.252Z,10.13
2023-03-22T06:21:02.670Z,9.53
2023-03-22T06:23:31.107Z,9.77
2023-03-22T06:26:00.657Z,8.87
2023-03-22T06:28:29.962Z,9.47
2023-03-22T06:30:58.286Z,9.03
2023-03-22T06:33:27.147Z,9.50
2023-03-22T06:35:55.455Z,9.20
2023-03-22T06:38:23.956Z,9.90
2023-03-22T06:40:52.121Z,9.03
2023-03-22T06:43:22.001Z,9.00
2023-03-22T06:45:50.450Z,8.47
2023-03-22T06:48:19.062Z,9.80
2023-03-22T06:50:47.393Z,9.37
2023-03-22T06:53:15.971Z,9.47
2023-03-22T06:55:44.180Z,8.97
2023-03-22T06:58:12.549Z,8.67
2023-03-22T07:00:42.354Z,8.60
2023-03-22T07:03:11.890Z,8.50
2023-03-22T07:05:40.367Z,8.80
2023-03-22T07:08:08.945Z,8.90
2023-03-22T07:10:37.502Z,8.47
2023-03-22T07:13:05.772Z,7.80
2023-03-22T07:15:35.026Z,7.87
2023-03-22T07:18:04.973Z,8.37
2023-03-22T07:20:36.784Z,8.17
2023-03-22T07:23:05.484Z,10.30
2023-03-22T07:25:33.704Z,8.57
2023-03-22T07:28:02.893Z,8.10
2023-03-22T07:30:31.710Z,7.57
2023-03-22T07:33:00.057Z,7.70
2023-03-22T07:35:31.008Z,7.27
2023-03-22T07:37:59.542Z,8.13
2023-03-22T07:40:28.725Z,7.73
2023-03-22T07:42:58.804Z,8.93
2023-03-22T07:45:27.813Z,8.73
2023-03-22T07:47:56.245Z,8.90
2023-03-22T07:50:25.006Z,8.33
2023-03-22T07:52:54.708Z,8.30
2023-03-22T07:55:24.238Z,8.30
2023-03-22T07:57:53.741Z,8.27
2023-03-22T08:00:22.573Z,7.80
2023-03-22T08:02:50.804Z,8.70
2023-03-22T08:05:19.418Z,8.17
2023-03-22T08:07:48.208Z,8.27
2023-03-22T08:10:18.077Z,7.77
2023-03-22T08:12:46.577Z,7.57
2023-03-22T08:15:15.089Z,9.20
2023-03-22T08:17:43.395Z,14.50
2023-03-22T08:20:13.673Z,14.00
2023-03-22T08:22:42.525Z,12.23
2023-03-22T08:25:11.674Z,14.83
2023-03-22T08:27:41.257Z,15.33
2023-03-22T08:30:11.078Z,13.43
2023-03-22T08:32:39.958Z,12.80
2023-03-22T08:35:09.735Z,11.50
2023-03-22T08:37:38.200Z,9.93
2023-03-22T08:40:10.540Z,10.50
2023-03-22T08:42:38.740Z,11.40
2023-03-22T08:45:10.507Z,10.90
2023-03-22T08:47:38.838Z,12.37
2023-03-22T08:50:08.203Z,10.93
2023-03-22T08:52:36.672Z,11.40
2023-03-22T08:55:05.841Z,8.87
2023-03-22T08:57:34.107Z,8.00
2023-03-22T09:00:04.775Z,7.43
2023-03-22T09:02:34.582Z,7.10
2023-03-22T09:05:02.927Z,8.70
2023-03-22T09:07:31.422Z,11.20
2023-03-22T09:09:59.759Z,9.17
2023-03-22T09:12:29.907Z,15.40
2023-03-22T09:14:58.352Z,8.40
2023-03-22T09:17:27.324Z,8.73
2023-03-22T09:20:11.080Z,8.43
2023-03-22T09:22:40.478Z,9.67
2023-03-22T09:25:12.225Z,9.70
2023-03-22T09:27:42.162Z,8.13
2023-03-22T09:30:12.254Z,7.37
2023-03-22T09:32:43.294Z,7.30
2023-03-22T09:35:12.924Z,5.87
2023-03-22T09:37:41.666Z,7.17
2023-03-22T09:40:12.808Z,5.63
2023-03-22T09:42:43.791Z,5.83
2023-03-22T09:45:16.369Z,6.90
2023-03-22T09:47:48.153Z,5.03
2023-03-22T09:50:22.300Z,5.20
2023-03-22T09:52:51.812Z,5.00
2023-03-22T09:55:22.672Z,5.83
2023-03-22T09:58:01.150Z,4.40
2023-03-22T10:00:39.172Z,4.40
2023-03-22T10:03:21.171Z,4.80
2023-03-22T10:05:56.231Z,4.17
2023-03-22T10:08:35.458Z,4.50
2023-03-22T10:11:05.834Z,4.47
2023-03-22T10:13:41.413Z,4.93
2023-03-22T10:16:17.352Z,4.63
2023-03-22T10:18:48.051Z,4.50
2023-03-22T10:21:20.371Z,4.43
2023-03-22T10:23:53.410Z,4.00
2023-03-22T10:26:26.246Z,4.17
2023-03-22T10:29:03.513Z,2.87
2023-03-22T10:31:35.814Z,3.50
2023-03-22T10:34:10.180Z,3.30
2023-03-22T10:36:42.179Z,3.00
2023-03-22T10:39:20.199Z,3.90
2023-03-22T10:41:50.669Z,3.53
2023-03-22T10:44:21.728Z,2.87
2023-03-22T10:46:50.896Z,3.47
2023-03-22T10:49:26.565Z,3.17
2023-03-22T10:52:01.373Z,2.77
2023-03-22T10:54:29.804Z,2.73
2023-03-22T10:56:58.050Z,2.87
2023-03-22T10:59:48.264Z,3.17
2023-03-22T11:02:22.900Z,3.20
2023-03-22T11:04:54.077Z,3.17
2023-03-22T11:07:35.998Z,3.17
2023-03-22T11:10:22.000Z,3.07
2023-03-22T11:12:53.551Z,3.07
2023-03-22T11:15:26.886Z,3.20
2023-03-22T11:18:01.604Z,3.23
2023-03-22T11:20:31.301Z,3.00
2023-03-22T11:23:05.286Z,2.87
2023-03-22T11:25:37.799Z,2.50
2023-03-22T11:28:16.862Z,2.77
2023-03-22T11:31:00.943Z,2.47
2023-03-22T11:33:29.736Z,2.53
2023-03-22T11:35:59.956Z,2.60
2023-03-22T11:38:36.595Z,2.87
2023-03-22T11:41:09.012Z,2.63
2023-03-22T11:43:40.215Z,2.50
2023-03-22T11:46:09.955Z,2.73
2023-03-22T11:48:41.077Z,2.57
2023-03-22T11:51:12.052Z,2.50
2023-03-22T11:53:44.460Z,2.50
2023-03-22T11:56:16.536Z,2.60
2023-03-22T11:59:04.146Z,2.67
2023-03-22T12:01:38.297Z,2.33
2023-03-22T12:04:10.566Z,2.40
2023-03-22T12:06:41.715Z,2.60
2023-03-22T12:09:23.713Z,2.30
2023-03-22T12:11:56.233Z,2.70
2023-03-22T12:14:29.102Z,2.70
2023-03-22T12:17:01.100Z,2.50
2023-03-22T12:19:44.402Z,2.63
2023-03-22T12:22:15.143Z,2.00
2023-03-22T12:24:44.883Z,2.00
2023-03-22T12:27:18.858Z,1.97
2023-03-22T12:29:53.093Z,2.20
2023-03-22T12:32:26.463Z,1.90
2023-03-22T12:35:05.454Z,2.27
2023-03-22T12:37:47.237Z,2.20
2023-03-22T12:40:24.371Z,2.40
2023-03-22T12:43:01.895Z,2.10
2023-03-22T12:45:33.168Z,2.10
2023-03-22T12:48:08.031Z,2.37
2023-03-22T12:50:43.301Z,2.60
2023-03-22T12:53:15.426Z,3.10
2023-03-22T12:56:04.822Z,5.00
2023-03-22T12:58:33.176Z,6.07
2023-03-22T13:01:13.733Z,6.00
2023-03-22T13:03:52.134Z,4.50
2023-03-22T13:06:33.736Z,3.90
2023-03-22T13:09:17.431Z,2.53
2023-03-22T13:11:48.732Z,2.63
2023-03-22T13:14:50.674Z,3.13
2023-03-22T13:17:41.719Z,3.10
2023-03-22T13:20:34.046Z,3.30
2023-03-22T13:23:26.974Z,2.80
2023-03-22T13:26:06.157Z,2.67
2023-03-22T13:28:38.091Z,3.00
2023-03-22T13:31:07.300Z,3.10
2023-03-22T13:33:38.689Z,2.33
2023-03-22T13:36:23.010Z,2.90
2023-03-22T13:38:58.905Z,2.70
2023-03-22T13:41:32.134Z,2.70
2023-03-22T13:44:05.961Z,4.17
2023-03-22T13:46:47.593Z,4.80
2023-03-22T13:49:27.958Z,4.70
2023-03-22T13:51:59.685Z,5.90
2023-03-22T13:54:33.598Z,3.70
2023-03-22T13:57:02.208Z,3.73
2023-03-22T14:00:08.851Z,2.93
2023-03-22T14:02:42.924Z,2.50
2023-03-22T14:05:17.573Z,1.87
2023-03-22T14:07:50.827Z,2.50
2023-03-22T14:10:23.112Z,2.50
2023-03-22T14:12:55.734Z,2.07
2023-03-22T14:15:30.920Z,2.73
2023-03-22T14:18:03.417Z,2.10
2023-03-22T14:20:39.302Z,2.20
